createdAt,value
2019-02-12T00:00:56.806Z,10.00
2019-02-12T00:03:25.793Z,9.00
2019-02-12T00:05:54.822Z,13.50
2019-02-12T00:08:23.842Z,14.50
2019-02-12T00:10:52.880Z,13.00
2019-02-12T00:13:21.946Z,11.00
2019-02-12T00:15:50.984Z,12.00
2019-02-12T00:18:20.060Z,10.00
2019-02-12T00:20:49.067Z,11.50
2019-02-12T00:23:18.135Z,10.00
2019-02-12T00:25:47.121Z,15.50
2019-02-12T00:28:16.154Z,15.00
2019-02-12T00:30:45.158Z,11.50
2019-02-12T00:33:14.163Z,12.50
2019-02-12T00:35:43.146Z,12.50
2019-02-12T00:38:12.130Z,11.00
2019-02-12T00:40:41.155Z,10.50
2019-02-12T00:43:10.168Z,11.50
2019-02-12T00:45:39.244Z,11.00
2019-02-12T00:48:08.302Z,8.00
2019-02-12T00:50:37.394Z,9.50
2019-02-12T00:53:06.431Z,6.50
2019-02-12T00:55:35.532Z,6.50
2019-02-12T00:58:04.606Z,7.00
2019-02-12T01:00:33.626Z,6.50
2019-02-12T01:03:03.061Z,10.00
2019-02-12T01:05:32.078Z,8.00
2019-02-12T01:08:01.100Z,5.50
2019-02-12T01:10:31.420Z,8.00
2019-02-12T01:13:00.419Z,8.00
2019-02-12T01:15:29.540Z,8.00
2019-02-12T01:17:58.631Z,8.00
2019-02-12T01:20:27.636Z,6.00
2019-02-12T01:22:56.607Z,7.50
2019-02-12T01:25:25.676Z,6.50
2019-02-12T01:27:54.655Z,8.00
2019-02-12T01:30:23.733Z,8.00
2019-02-12T01:32:52.749Z,8.00
2019-02-12T01:35:21.726Z,7.50
2019-02-12T01:37:50.707Z,6.50
2019-02-12T01:40:19.697Z,9.50
2019-02-12T01:42:48.674Z,7.00
2019-02-12T01:45:18.752Z,9.00
2019-02-12T01:47:47.766Z,9.00
2019-02-12T01:50:16.920Z,11.00
2019-02-12T01:52:45.935Z,9.50
2019-02-12T01:55:14.920Z,8.00
2019-02-12T01:57:43.906Z,9.50
2019-02-12T02:00:14.439Z,8.50
2019-02-12T02:02:43.777Z,9.50
2019-02-12T02:05:12.842Z,7.50
2019-02-12T02:07:41.953Z,10.00
2019-02-12T02:10:13.393Z,9.00
2019-02-12T02:12:43.853Z,6.00
2019-02-12T02:15:13.208Z,10.50
2019-02-12T02:17:42.301Z,10.50
2019-02-12T02:20:13.390Z,10.00
2019-02-12T02:22:42.452Z,8.00
2019-02-12T02:25:11.755Z,8.50
2019-02-12T02:27:40.826Z,9.00
2019-02-12T02:30:11.130Z,8.00
2019-02-12T02:32:40.089Z,14.00
2019-02-12T02:35:09.238Z,10.00
2019-02-12T02:37:38.678Z,10.00
2019-02-12T02:40:08.592Z,10.00
2019-02-12T02:42:37.669Z,10.50
2019-02-12T02:45:07.210Z,10.00
2019-02-12T02:47:36.299Z,10.00
2019-02-12T02:50:05.691Z,9.00
2019-02-12T02:52:34.776Z,10.00
2019-02-12T02:55:03.935Z,9.00
2019-02-12T02:57:32.949Z,11.00
2019-02-12T03:00:01.948Z,8.00
2019-02-12T03:02:31.031Z,10.00
2019-02-12T03:05:00.035Z,6.50
2019-02-12T03:07:29.037Z,9.50
2019-02-12T03:09:58.061Z,8.00
2019-02-12T03:12:27.030Z,9.00
2019-02-12T03:14:56.037Z,9.00
2019-02-12T03:17:24.975Z,7.50
2019-02-12T03:19:53.997Z,6.50
2019-02-12T03:22:22.999Z,8.00
2019-02-12T03:24:52.003Z,6.00
2019-02-12T03:27:21.035Z,6.50
2019-02-12T03:29:50.040Z,9.50
2019-02-12T03:32:19.054Z,6.50
2019-02-12T03:34:48.049Z,8.00
2019-02-12T03:37:17.065Z,7.00
2019-02-12T03:39:46.140Z,6.00
2019-02-12T03:42:15.234Z,8.50
2019-02-12T03:44:44.242Z,8.00
2019-02-12T03:47:13.234Z,8.00
2019-02-12T03:49:42.222Z,10.50
2019-02-12T03:52:13.022Z,8.00
2019-02-12T03:54:42.078Z,8.00
2019-02-12T03:57:11.104Z,12.00
2019-02-12T03:59:40.373Z,11.00
2019-02-12T04:02:09.454Z,11.50
2019-02-12T04:04:38.637Z,9.50
2019-02-12T04:07:07.625Z,8.00
2019-02-12T04:09:36.621Z,9.00
2019-02-12T04:12:05.717Z,11.00
2019-02-12T04:14:34.808Z,8.50
2019-02-12T04:17:03.871Z,8.00
2019-02-12T04:19:32.834Z,8.50
2019-02-12T04:22:01.856Z,10.00
2019-02-12T04:24:30.962Z,8.00
2019-02-12T04:26:59.985Z,8.00
2019-02-12T04:29:29.011Z,8.00
2019-02-12T04:31:58.058Z,10.00
2019-02-12T04:34:27.087Z,8.00
2019-02-12T04:36:56.064Z,9.50
2019-02-12T04:39:25.119Z,8.00
2019-02-12T04:41:54.092Z,10.00
2019-02-12T04:44:23.098Z,9.00
2019-02-12T04:46:52.079Z,8.00
2019-02-12T04:49:21.129Z,9.00
2019-02-12T04:51:50.045Z,10.00
2019-02-12T04:54:19.146Z,9.50
2019-02-12T04:56:48.222Z,10.00
2019-02-12T04:59:17.249Z,8.50
2019-02-12T05:01:46.245Z,8.00
2019-02-12T05:04:15.370Z,10.00
2019-02-12T05:06:44.336Z,10.00
2019-02-12T05:09:15.856Z,8.00
2019-02-12T05:11:48.232Z,8.50
2019-02-12T05:14:17.316Z,11.00
2019-02-12T05:16:46.338Z,10.50
2019-02-12T05:19:15.307Z,10.00
2019-02-12T05:21:44.306Z,11.00
2019-02-12T05:24:13.309Z,10.50
2019-02-12T05:26:42.312Z,10.00
2019-02-12T05:29:11.292Z,12.00
2019-02-12T05:31:40.300Z,10.00
2019-02-12T05:34:09.306Z,12.00
2019-02-12T05:36:38.314Z,13.50
2019-02-12T05:39:07.452Z,13.50
2019-02-12T05:41:36.397Z,12.00
2019-02-12T05:44:05.552Z,13.00
2019-02-12T05:46:34.525Z,14.00
2019-02-12T05:49:03.581Z,11.00
2019-02-12T05:51:32.618Z,12.50
2019-02-12T05:54:01.616Z,15.00
2019-02-12T05:56:30.618Z,13.00
2019-02-12T05:58:59.614Z,13.50
2019-02-12T06:01:28.594Z,13.00
2019-02-12T06:03:57.659Z,13.50
2019-02-12T06:06:26.654Z,16.00
2019-02-12T06:08:55.699Z,14.00
2019-02-12T06:11:24.676Z,16.00
2019-02-12T06:13:53.743Z,16.00
2019-02-12T06:16:22.843Z,12.00
2019-02-12T06:18:51.878Z,13.50
2019-02-12T06:21:20.903Z,15.00
2019-02-12T06:23:49.976Z,14.50
2019-02-12T06:26:18.967Z,14.00
2019-02-12T06:28:48.155Z,14.00
2019-02-12T06:31:17.157Z,14.50
2019-02-12T06:33:46.167Z,15.00
2019-02-12T06:36:15.168Z,16.50
2019-02-12T06:38:44.139Z,14.00
2019-02-12T06:41:13.169Z,16.00
2019-02-12T06:43:42.181Z,13.50
2019-02-12T06:46:11.176Z,16.00
2019-02-12T06:48:40.190Z,13.00
2019-02-12T06:51:09.281Z,14.50
2019-02-12T06:53:38.302Z,13.50
2019-02-12T06:56:07.308Z,12.00
2019-02-12T06:58:36.287Z,11.00
2019-02-12T07:01:05.443Z,13.50
2019-02-12T07:03:45.654Z,12.50
2019-02-12T07:06:48.859Z,13.50
2019-02-12T07:09:45.608Z,12.00
2019-02-12T07:12:40.521Z,11.50
2019-02-12T07:15:38.206Z,8.00
2019-02-12T07:19:09.818Z,9.50
2019-02-12T07:21:48.663Z,10.00
2019-02-12T07:25:01.558Z,12.00
2019-02-12T07:28:30.216Z,15.00
2019-02-12T07:31:54.570Z,13.00
2019-02-12T07:35:07.491Z,13.00
2019-02-12T07:38:26.855Z,11.50
2019-02-12T07:41:49.861Z,14.00
2019-02-12T07:44:27.346Z,12.50
2019-02-12T07:47:11.000Z,12.50
2019-02-12T07:50:29.594Z,14.00
2019-02-12T07:53:14.439Z,11.00
2019-02-12T07:55:58.330Z,13.00
2019-02-12T07:58:39.982Z,10.50
2019-02-12T08:01:20.487Z,14.00
2019-02-12T08:04:18.763Z,15.00
2019-02-12T08:07:31.597Z,12.00
2019-02-12T08:10:27.756Z,13.00
2019-02-12T08:13:02.633Z,12.50
2019-02-12T08:16:03.523Z,12.00
2019-02-12T08:18:59.973Z,16.00
2019-02-12T08:22:14.053Z,14.50
2019-02-12T08:25:23.485Z,19.50
2019-02-12T08:28:12.728Z,19.00
2019-02-12T08:31:18.943Z,16.50
2019-02-12T08:34:19.721Z,17.50
2019-02-12T08:37:02.685Z,15.50
2019-02-12T08:40:26.797Z,14.50
2019-02-12T08:43:19.303Z,18.50
2019-02-12T08:46:34.025Z,19.00
2019-02-12T08:49:35.083Z,15.00
2019-02-12T08:52:44.951Z,16.00
2019-02-12T08:56:01.525Z,18.00
2019-02-12T08:58:55.915Z,19.00
2019-02-12T09:01:45.424Z,21.00
2019-02-12T09:04:34.655Z,16.00
2019-02-12T09:07:28.089Z,14.00
2019-02-12T09:10:53.535Z,12.50
2019-02-12T09:13:51.144Z,12.00
2019-02-12T09:16:38.611Z,15.50
2019-02-12T09:19:28.462Z,16.50
2019-02-12T09:22:53.755Z,15.50
2019-02-12T09:25:50.449Z,15.00
2019-02-12T09:28:57.489Z,12.50
2019-02-12T09:32:00.178Z,13.00
2019-02-12T09:35:04.255Z,14.00
2019-02-12T09:38:20.098Z,14.00
2019-02-12T09:41:16.189Z,12.00
2019-02-12T09:44:08.044Z,12.00
2019-02-12T09:47:10.997Z,14.00
2019-02-12T09:50:09.112Z,17.00
2019-02-12T09:53:19.347Z,15.00
2019-02-12T09:56:03.143Z,15.50
2019-02-12T09:58:56.398Z,15.00
2019-02-12T10:01:56.501Z,14.00
2019-02-12T10:04:53.529Z,14.00
2019-02-12T10:07:34.390Z,14.00
2019-02-12T10:10:45.595Z,15.00
2019-02-12T10:13:39.134Z,16.00
2019-02-12T10:16:35.745Z,18.00
2019-02-12T10:19:25.376Z,17.50
2019-02-12T10:22:15.946Z,18.00
2019-02-12T10:25:24.274Z,18.00
2019-02-12T10:28:30.546Z,19.50
2019-02-12T10:31:03.682Z,20.50
2019-02-12T10:33:32.706Z,24.00
2019-02-12T10:36:01.660Z,23.50
2019-02-12T10:38:30.751Z,26.00
2019-02-12T10:40:59.778Z,23.50
2019-02-12T10:43:28.887Z,22.00
2019-02-12T10:45:57.883Z,23.50
2019-02-12T10:48:26.965Z,24.00
2019-02-12T10:50:55.947Z,23.50
2019-02-12T10:53:25.080Z,25.00
2019-02-12T10:55:54.179Z,23.50
2019-02-12T10:58:23.155Z,25.50
2019-02-12T11:00:52.239Z,23.00
2019-02-12T11:03:21.230Z,26.00
2019-02-12T11:05:50.490Z,23.00
2019-02-12T11:08:19.610Z,27.50
2019-02-12T11:10:48.739Z,29.00
2019-02-12T11:13:17.730Z,27.00
2019-02-12T11:15:46.797Z,26.00
2019-02-12T11:18:15.822Z,25.75
2019-02-12T11:20:44.880Z,23.75
2019-02-12T11:23:13.886Z,26.25
2019-02-12T11:25:42.869Z,24.25
2019-02-12T11:28:11.928Z,29.75
2019-02-12T11:30:40.980Z,29.75
2019-02-12T11:33:10.139Z,26.00
2019-02-12T11:35:39.146Z,29.00
2019-02-12T11:38:08.193Z,26.00
2019-02-12T11:40:37.384Z,27.00
2019-02-12T11:43:06.547Z,29.25
2019-02-12T11:45:35.592Z,27.00
2019-02-12T11:48:04.979Z,30.25
2019-02-12T11:50:33.945Z,28.75
2019-02-12T11:53:02.963Z,32.25
2019-02-12T11:55:31.988Z,29.75
2019-02-12T11:58:00.959Z,30.75
2019-02-12T12:00:35.935Z,34.00
2019-02-12T12:03:05.028Z,28.50
2019-02-12T12:05:34.090Z,29.50
2019-02-12T12:08:03.095Z,30.25
2019-02-12T12:10:32.099Z,31.25
2019-02-12T12:13:01.084Z,27.75
2019-02-12T12:15:30.235Z,29.00
2019-02-12T12:17:59.226Z,32.75
2019-02-12T12:20:28.287Z,28.00
2019-02-12T12:22:57.225Z,27.00
2019-02-12T12:25:26.261Z,31.25
2019-02-12T12:27:55.267Z,29.75
2019-02-12T12:30:24.426Z,30.75
2019-02-12T12:32:53.484Z,27.00
2019-02-12T12:35:23.849Z,29.75
2019-02-12T12:37:53.204Z,30.75
2019-02-12T12:40:22.287Z,27.75
2019-02-12T12:42:51.298Z,28.00
2019-02-12T12:45:20.385Z,34.25
2019-02-12T12:47:49.434Z,32.75
2019-02-12T12:50:18.575Z,29.50
2019-02-12T12:52:47.559Z,27.75
2019-02-12T12:55:16.664Z,28.50
2019-02-12T12:57:45.698Z,33.75
2019-02-12T13:00:14.843Z,28.50
2019-02-12T13:02:43.924Z,30.25
2019-02-12T13:05:12.979Z,28.50
2019-02-12T13:07:41.970Z,28.00
2019-02-12T13:10:12.795Z,29.50
2019-02-12T13:12:41.854Z,25.50
2019-02-12T13:15:12.039Z,27.50
2019-02-12T13:17:41.103Z,27.75
2019-02-12T13:20:12.299Z,28.00
2019-02-12T13:22:41.394Z,25.25
2019-02-12T13:25:11.170Z,30.50
2019-02-12T13:27:40.250Z,27.00
2019-02-12T13:30:12.522Z,27.50
2019-02-12T13:32:41.514Z,24.50
2019-02-12T13:35:11.160Z,24.00
2019-02-12T13:37:40.270Z,26.50
2019-02-12T13:40:10.762Z,22.00
2019-02-12T13:42:39.877Z,27.25
2019-02-12T13:45:11.040Z,24.50
2019-02-12T13:47:40.074Z,25.50
2019-02-12T13:50:10.170Z,23.25
2019-02-12T13:52:39.340Z,28.75
2019-02-12T13:55:15.399Z,26.75
2019-02-12T13:57:39.481Z,22.75
2019-02-12T14:00:11.204Z,31.25
2019-02-12T14:02:40.326Z,26.75
2019-02-12T14:05:12.601Z,28.25
2019-02-12T14:07:41.813Z,27.25
2019-02-12T14:10:11.009Z,26.25
2019-02-12T14:12:40.080Z,29.75
2019-02-12T14:15:10.748Z,25.75
2019-02-12T14:17:39.917Z,25.50
2019-02-12T14:20:11.151Z,29.25
2019-02-12T14:22:40.385Z,24.00
2019-02-12T14:25:10.072Z,24.00
2019-02-12T14:27:39.250Z,23.00
2019-02-12T14:30:10.010Z,24.75
2019-02-12T14:32:39.122Z,22.25
2019-02-12T14:35:08.726Z,21.75
2019-02-12T14:37:37.795Z,25.25
2019-02-12T14:40:07.702Z,25.75
2019-02-12T14:42:36.760Z,23.25
2019-02-12T14:45:07.469Z,24.75
2019-02-12T14:47:36.584Z,23.25
2019-02-12T14:50:06.159Z,20.00
2019-02-12T14:52:35.255Z,21.00
2019-02-12T14:55:04.621Z,22.75
2019-02-12T14:57:33.628Z,24.00
2019-02-12T15:00:02.796Z,21.50
2019-02-12T15:02:31.866Z,21.50
2019-02-12T15:05:01.142Z,22.50
2019-02-12T15:07:30.203Z,25.50
2019-02-12T15:09:59.223Z,24.00
2019-02-12T15:12:28.292Z,21.00
2019-02-12T15:14:57.283Z,20.00
2019-02-12T15:17:26.327Z,22.00
2019-02-12T15:19:55.485Z,23.50
2019-02-12T15:22:24.498Z,22.00
2019-02-12T15:24:53.547Z,24.50
2019-02-12T15:27:22.525Z,23.50
2019-02-12T15:29:51.603Z,23.50
2019-02-12T15:32:20.718Z,24.00
2019-02-12T15:34:49.803Z,27.50
2019-02-12T15:37:18.914Z,24.00
2019-02-12T15:39:48.001Z,25.50
2019-02-12T15:42:17.119Z,26.00
2019-02-12T15:44:46.231Z,30.50
2019-02-12T15:47:15.240Z,32.25
2019-02-12T15:49:44.219Z,29.50
2019-02-12T15:52:13.246Z,29.00
2019-02-12T15:54:42.296Z,25.50
2019-02-12T15:57:11.427Z,26.00
2019-02-12T15:59:40.600Z,25.75
2019-02-12T16:02:11.591Z,25.50
2019-02-12T16:04:40.935Z,29.00
2019-02-12T16:07:12.341Z,29.00
2019-02-12T16:09:41.740Z,26.75
2019-02-12T16:12:24.308Z,27.75
2019-02-12T16:14:53.659Z,28.75
2019-02-12T16:17:25.536Z,25.75
2019-02-12T16:19:55.863Z,27.25
2019-02-12T16:22:24.866Z,25.75
2019-02-12T16:24:54.200Z,29.75
2019-02-12T16:27:23.355Z,29.25
2019-02-12T16:29:52.428Z,27.75
2019-02-12T16:32:21.505Z,29.25
2019-02-12T16:34:50.822Z,30.25
2019-02-12T16:37:19.948Z,28.75
2019-02-12T16:39:48.960Z,28.75
2019-02-12T16:42:18.094Z,28.75
2019-02-12T16:44:47.105Z,32.75
2019-02-12T16:47:16.174Z,32.25
2019-02-12T16:49:45.194Z,29.25
2019-02-12T16:52:20.686Z,29.00
2019-02-12T16:54:45.028Z,31.00
2019-02-12T16:57:14.015Z,33.25
2019-02-12T16:59:43.036Z,46.25
2019-02-12T17:02:12.128Z,28.50
2019-02-12T17:04:41.132Z,28.00
2019-02-12T17:07:10.263Z,29.00
2019-02-12T17:09:39.262Z,25.50
2019-02-12T17:12:08.490Z,31.00
2019-02-12T17:14:37.472Z,29.00
2019-02-12T17:17:06.550Z,27.50
2019-02-12T17:19:35.542Z,31.50
2019-02-12T17:22:04.952Z,32.25
2019-02-12T17:24:34.119Z,34.25
2019-02-12T17:27:03.141Z,37.25
2019-02-12T17:29:32.264Z,33.50
2019-02-12T17:32:01.238Z,31.00
2019-02-12T17:34:30.251Z,34.25
2019-02-12T17:36:59.348Z,31.25
2019-02-12T17:39:28.332Z,37.75
2019-02-12T17:41:57.483Z,29.75
2019-02-12T17:44:26.478Z,36.75
2019-02-12T17:46:55.605Z,32.75
2019-02-12T17:49:24.621Z,34.25
2019-02-12T17:51:53.622Z,33.25
2019-02-12T17:54:22.921Z,35.25
2019-02-12T17:56:52.007Z,35.25
2019-02-12T17:59:21.009Z,34.75
2019-02-12T18:01:50.084Z,39.25
2019-02-12T18:04:21.390Z,44.25
2019-02-12T18:06:50.433Z,47.25
2019-02-12T18:09:19.546Z,38.25
2019-02-12T18:11:49.522Z,39.75
2019-02-12T18:14:18.544Z,40.00
2019-02-12T18:16:47.670Z,40.00
2019-02-12T18:19:16.801Z,35.50
2019-02-12T18:21:45.927Z,34.00
2019-02-12T18:24:14.935Z,40.00
2019-02-12T18:26:45.116Z,40.00
2019-02-12T18:29:14.204Z,40.50
2019-02-12T18:31:44.085Z,37.50
2019-02-12T18:34:13.150Z,39.00
2019-02-12T18:36:42.245Z,35.50
2019-02-12T18:39:14.134Z,38.00
2019-02-12T18:41:43.194Z,38.00
2019-02-12T18:44:12.175Z,39.50
2019-02-12T18:46:41.397Z,40.50
2019-02-12T18:49:11.403Z,40.00
2019-02-12T18:51:40.387Z,40.00
2019-02-12T18:54:09.372Z,40.00
2019-02-12T18:56:41.690Z,41.50
2019-02-12T18:59:10.003Z,40.00
2019-02-12T19:01:41.162Z,39.00
2019-02-12T19:04:10.739Z,40.00
2019-02-12T19:06:40.646Z,35.00
2019-02-12T19:09:13.546Z,35.50
2019-02-12T19:11:52.604Z,36.00
2019-02-12T19:14:14.790Z,40.00
2019-02-12T19:16:44.785Z,36.00
2019-02-12T19:19:15.977Z,37.00
2019-02-12T19:21:45.149Z,42.50
2019-02-12T19:24:14.182Z,40.00
2019-02-12T19:26:49.790Z,39.50
2019-02-12T19:29:14.243Z,39.00
2019-02-12T19:31:43.257Z,37.50
2019-02-12T19:34:12.531Z,38.50
2019-02-12T19:36:41.770Z,37.00
2019-02-12T19:39:10.871Z,36.00
2019-02-12T19:41:39.985Z,40.00
2019-02-12T19:44:09.344Z,38.50
2019-02-12T19:46:38.325Z,40.50
2019-02-12T19:49:07.434Z,42.00
2019-02-12T19:51:36.488Z,40.00
2019-02-12T19:54:05.465Z,40.00
2019-02-12T19:56:34.597Z,43.50
2019-02-12T19:59:03.570Z,43.00
2019-02-12T20:01:32.893Z,43.50
2019-02-12T20:04:01.966Z,44.50
2019-02-12T20:06:31.052Z,43.00
2019-02-12T20:09:00.061Z,42.00
2019-02-12T20:11:30.854Z,40.00
2019-02-12T20:13:59.889Z,50.00
2019-02-12T20:16:28.979Z,43.00
2019-02-12T20:18:57.984Z,40.00
2019-02-12T20:21:27.101Z,43.00
2019-02-12T20:23:57.046Z,40.00
2019-02-12T20:26:26.683Z,39.50
2019-02-12T20:28:55.780Z,40.00
2019-02-12T20:31:25.378Z,39.50
2019-02-12T20:33:57.107Z,40.00
2019-02-12T20:36:27.355Z,40.50
2019-02-12T20:38:56.692Z,40.00
2019-02-12T20:41:27.085Z,41.00
2019-02-12T20:43:56.237Z,40.00
2019-02-12T20:46:25.366Z,40.00
2019-02-12T20:48:54.413Z,40.50
2019-02-12T20:51:23.411Z,39.50
2019-02-12T20:53:52.660Z,38.50
2019-02-12T20:56:21.652Z,40.50
2019-02-12T20:58:50.690Z,41.00
2019-02-12T21:01:19.711Z,40.50
2019-02-12T21:03:48.716Z,38.00
2019-02-12T21:06:17.834Z,39.50
2019-02-12T21:08:47.190Z,40.00
2019-02-12T21:11:16.321Z,38.00
2019-02-12T21:13:45.345Z,42.00
2019-02-12T21:16:14.392Z,41.00
2019-02-12T21:18:43.483Z,41.50
2019-02-12T21:21:12.458Z,38.50
2019-02-12T21:23:41.523Z,40.00
2019-02-12T21:26:10.564Z,39.50
2019-02-12T21:28:39.696Z,40.00
2019-02-12T21:31:08.671Z,40.00
2019-02-12T21:33:37.681Z,36.00
2019-02-12T21:36:06.684Z,39.00
2019-02-12T21:38:35.693Z,35.50
2019-02-12T21:41:04.750Z,40.00
2019-02-12T21:43:33.843Z,39.50
2019-02-12T21:46:02.858Z,37.50
2019-02-12T21:48:31.876Z,38.00
2019-02-12T21:51:01.003Z,36.00
2019-02-12T21:53:29.995Z,40.50
2019-02-12T21:55:58.959Z,38.00
2019-02-12T21:58:28.163Z,36.50
2019-02-12T22:00:57.131Z,37.00
2019-02-12T22:03:26.155Z,38.00
2019-02-12T22:05:55.168Z,38.00
2019-02-12T22:08:24.249Z,40.50
2019-02-12T22:10:53.251Z,34.50
2019-02-12T22:13:22.338Z,42.00
2019-02-12T22:15:51.468Z,39.50
2019-02-12T22:18:21.750Z,37.50
2019-02-12T22:20:50.735Z,37.00
2019-02-12T22:23:19.846Z,40.50
2019-02-12T22:25:49.207Z,35.50
2019-02-12T22:28:18.258Z,37.50
2019-02-12T22:30:47.358Z,35.50
2019-02-12T22:33:16.394Z,40.00
2019-02-12T22:35:45.494Z,40.00
2019-02-12T22:38:14.493Z,38.00
2019-02-12T22:40:43.516Z,38.50
2019-02-12T22:43:12.546Z,38.00
2019-02-12T22:45:41.600Z,35.00
2019-02-12T22:48:10.613Z,37.00
2019-02-12T22:50:39.724Z,34.50
2019-02-12T22:53:08.729Z,37.00
2019-02-12T22:55:37.764Z,35.50
2019-02-12T22:58:06.781Z,39.00
2019-02-12T23:01:02.252Z,40.00
2019-02-12T23:03:33.447Z,38.50
2019-02-12T23:06:02.572Z,37.50
2019-02-12T23:08:31.738Z,33.50
2019-02-12T23:11:00.764Z,36.50
2019-02-12T23:13:29.851Z,39.00
2019-02-12T23:15:58.850Z,36.50
2019-02-12T23:18:27.877Z,36.50
2019-02-12T23:20:56.920Z,33.50
2019-02-12T23:23:25.941Z,37.00
2019-02-12T23:25:54.970Z,34.00
2019-02-12T23:28:24.001Z,36.00
2019-02-12T23:30:53.021Z,31.00
2019-02-12T23:33:22.067Z,39.00
2019-02-12T23:35:51.124Z,37.00
2019-02-12T23:38:20.196Z,34.00
2019-02-12T23:40:49.233Z,37.50
2019-02-12T23:43:18.309Z,33.50
2019-02-12T23:45:47.335Z,33.00
2019-02-12T23:48:16.378Z,30.00
2019-02-12T23:50:45.407Z,39.50
2019-02-12T23:53:14.404Z,38.00
2019-02-12T23:55:43.391Z,35.50
2019-02-12T23:58:12.393Z,36.00
